ADDS METAR Data INFO
IDs: Format: Raw Decoded Include TAF

Data at: 0350 UTC 18 Oct 2017

KLOU 180253Z AUTO 00000KT 10SM CLR 10/08 A3029 RMK AO2 SLP256 T01000083 53005
KLOU 180153Z AUTO 00000KT 10SM CLR 11/08 A3028 RMK AO2 SLP253 T01060078
KLOU 180053Z 00000KT 10SM CLR 12/08 A3028 RMK AO2 SLP254 T01170078
KLOU 172353Z 00000KT 10SM CLR 14/07 A3027 RMK AO2 SLP252 T01390067 10189 20133 55001
KLOU 172253Z 17003KT 10SM CLR 17/05 A3027 RMK AO2 SLP250 T01720050
KLOU 172153Z 18004KT 10SM CLR 17/06 A3027 RMK AO2 SLP251 T01720056
KLOU 172053Z 22003KT 10SM CLR 18/06 A3028 RMK AO2 SLP252 T01830056 56021
KLOU 171953Z 21006KT 10SM CLR 18/06 A3029 RMK AO2 SLP256 T01830061
KLOU 171853Z VRB03KT 10SM CLR 18/07 A3031 RMK AO2 SLP263 T01830067
KLOU 171753Z 16008KT 10SM CLR 18/06 A3034 RMK AO2 SLP274 T01780061 10178 20044 58022
KLOU 171653Z VRB05KT 10SM CLR 17/04 A3038 RMK AO2 SLP286 T01670044
KLOU 171553Z 18005KT 10SM CLR 16/07 A3039 RMK AO2 SLP292 T01560067
KLOU 171453Z 17005KT 10SM CLR 13/08 A3041 RMK AO2 SLP297 T01280083 51008
KLOU 171353Z 00000KT 10SM CLR 10/08 A3041 RMK AO2 SLP297 T01000083
KLOU 171253Z 00000KT 10SM CLR 07/07 A3039 RMK AO2 SLP292 T00720067
KLOU 171153Z 00000KT 10SM CLR 04/04 A3038 RMK AO2 SLP290 T00440044 10067 20039 51014
KLOU 171053Z 00000KT 10SM CLR 04/04 A3037 RMK AO2 SLP284 T00440044
KLOU 170953Z AUTO 00000KT 10SM CLR 05/04 A3036 RMK AO2 SLP280 T00500044
KLOU 170853Z AUTO 00000KT 10SM CLR 05/05 A3034 RMK AO2 SLP275 T00500050 51003
KLOU 170753Z AUTO 00000KT 10SM CLR 06/06 A3034 RMK AO2 SLP273 T00560056
KLOU 170653Z AUTO 00000KT 10SM CLR 06/06 A3034 RMK AO2 SLP272 T00610056
KLOU 170553Z AUTO 00000KT 10SM CLR 06/06 A3033 RMK AO2 SLP272 T00610061 10122 20061 58000
KLOU 170453Z AUTO 00000KT 10SM CLR 07/06 A3033 RMK AO2 SLP271 T00670061 401780067
KLOU 170353Z AUTO 00000KT 10SM CLR 07/07 A3033 RMK AO2 SLP272 T00720067
KLOU 170253Z AUTO 00000KT 10SM CLR 08/07 A3033 RMK AO2 SLP272 T00830067 53008
KLOU 170153Z 00000KT 10SM CLR 09/06 A3033 RMK AO2 SLP270 T00890061
KLOU 170053Z 00000KT 10SM CLR 10/06 A3031 RMK AO2 SLP265 T01000061
KLOU 162353Z 00000KT 10SM CLR 12/05 A3031 RMK AO2 SLP263 T01220050 10178 20117 53003
KLOU 162253Z 35003KT 10SM CLR 16/03 A3030 RMK AO2 SLP259 T01560028
KLOU 162153Z 34006KT 10SM CLR 17/03 A3029 RMK AO2 SLP255 T01670028
KLOU 162053Z 36007KT 310V010 10SM CLR 17/04 A3030 RMK AO2 SLP258 T01720039 56011
KLOU 161953Z 10SM FEW050 17/04 A3030 RMK AO2 SLP260 T01720044
KLOU 161853Z 03007KT 310V060 10SM FEW050 17/05 A3031 RMK AO2 SLP262 T01720050
KLOU 161753Z VRB06KT 10SM SCT047 16/06 A3033 RMK AO2 SLP270 T01610056 10161 20089 58007
KLOU 161653Z VRB05KT 10SM FEW038 SCT045 16/07 A3036 RMK AO2 SLP278 T01610067
KLOU 161553Z 34006KT 10SM FEW029 14/08 A3036 RMK AO2 SLP279 T01440083